Data Viewer
| City | State | Eastern Time | Source | 1 Hour Temp Max | 1 Hour Temp Min | 1 Hour Dew Point Max | 1 Hour Dew Point Min | 1 Hour RH Max | 1 Hour RH Min | 1 Hour BP Max | 1 Hour BP Min | 1 Hour Precip | 1 Hour Wind Max | 1 Hour Wind Max Dir |
|---|---|---|---|---|---|---|---|---|---|---|---|---|---|---|
| Charlotteburg | NJ | 2026-05-04 19:00 | Mesonet | 71 | 68 | 47 | 41 | 43 | 35 | 29.78 | 29.77 | 0.00 | 12 | W |
| Charlotteburg | NJ | 2026-05-05 08:00 | Mesonet | 61 | 55 | 55 | 53 | 94 | 78 | 29.83 | 29.81 | 0.00 | 4 | W |
| Charlotteburg | NJ | 2026-05-05 17:00 | Mesonet | W | ||||||||||
| Charlotteburg | NJ | 2026-05-05 16:00 | Mesonet | 82 | 79 | 57 | 49 | 44 | 33 | 29.76 | 29.74 | 0.00 | 20 | W |
| Charlotteburg | NJ | 2026-05-05 15:00 | Mesonet | 83 | 79 | 56 | 49 | 43 | 32 | 29.79 | 29.75 | 0.00 | 18 | W |
| Charlotteburg | NJ | 2026-05-05 14:00 | Mesonet | 82 | 77 | 59 | 50 | 51 | 35 | 29.80 | 29.76 | 0.00 | 24 | W |
| Charlotteburg | NJ | 2026-05-05 13:00 | Mesonet | 78 | 76 | 58 | 52 | 52 | 42 | 29.81 | 29.79 | 0.00 | 21 | W |
| Charlotteburg | NJ | 2026-05-05 12:00 | Mesonet | 77 | 74 | 58 | 51 | 56 | 43 | 29.83 | 29.81 | 0.00 | 17 | WNW |
| Charlotteburg | NJ | 2026-05-05 11:00 | Mesonet | 74 | 71 | 57 | 52 | 57 | 47 | 29.86 | 29.83 | 0.00 | 23 | WNW |
| Charlotteburg | NJ | 2026-05-05 10:00 | Mesonet | 71 | 66 | 56 | 51 | 66 | 52 | 29.85 | 29.84 | 0.00 | 19 | W |
| Charlotteburg | NJ | 2026-05-05 09:00 | Mesonet | 66 | 61 | 55 | 52 | 81 | 61 | 29.84 | 29.82 | 0.00 | 13 | ESE |
| Charlotteburg | NJ | 2026-05-05 07:00 | Mesonet | 60 | 53 | 53 | 47 | 90 | 70 | 29.83 | 29.81 | 0.00 | 15 | W |
| Charlotteburg | NJ | 2026-05-04 20:00 | Mesonet | 68 | 64 | 44 | 42 | 46 | 39 | 29.79 | 29.77 | 0.00 | 12 | W |
| Charlotteburg | NJ | 2026-05-05 06:00 | Mesonet | 53 | 51 | 48 | 46 | 85 | 81 | 29.82 | 29.79 | 0.00 | 8 | SE |
| Charlotteburg | NJ | 2026-05-05 05:00 | Mesonet | 54 | 51 | 47 | 46 | 83 | 75 | 29.80 | 29.79 | 0.00 | 2 | S |
| Charlotteburg | NJ | 2026-05-05 04:00 | Mesonet | 56 | 54 | 48 | 47 | 77 | 72 | 29.80 | 29.80 | 0.00 | 6 | SSE |
| Charlotteburg | NJ | 2026-05-05 03:00 | Mesonet | 56 | 52 | 47 | 44 | 77 | 72 | 29.81 | 29.80 | 0.00 | 5 | ESE |
| Charlotteburg | NJ | 2026-05-05 02:00 | Mesonet | 55 | 52 | 44 | 43 | 74 | 65 | 29.81 | 29.80 | 0.00 | 3 | SSE |
| Charlotteburg | NJ | 2026-05-05 01:00 | Mesonet | 56 | 55 | 44 | 43 | 66 | 62 | 29.82 | 29.81 | 0.00 | 2 | SSE |
| Charlotteburg | NJ | 2026-05-05 00:00 | Mesonet | 57 | 55 | 44 | 43 | 64 | 60 | 29.83 | 29.81 | 0.00 | 4 | S |
| Charlotteburg | NJ | 2026-05-04 23:00 | Mesonet | 59 | 56 | 44 | 43 | 62 | 56 | 29.83 | 29.82 | 0.00 | 5 | W |
| Charlotteburg | NJ | 2026-05-04 22:00 | Mesonet | 63 | 59 | 44 | 43 | 56 | 48 | 29.83 | 29.81 | 0.00 | 6 | WSW |
| Charlotteburg | NJ | 2026-05-04 21:00 | Mesonet | 65 | 62 | 43 | 42 | 49 | 45 | 29.81 | 29.79 | 0.00 | 7 | W |
| Charlotteburg | NJ | 2026-05-05 18:00 | Mesonet | 79 | 78 | 52 | 47 | 39 | 33 | 29.74 | 29.73 | 0.00 | 10 | SW |
data collection created in 0.0088098049163818 (queried in 0.002812) rendered in: 5.5074691772461E-5

